createdAt,value
2022-08-05T00:08:38.271Z,38.73
2022-08-05T00:18:45.571Z,38.31
2022-08-05T00:28:47.149Z,38.98
2022-08-05T00:38:51.758Z,39.64
2022-08-05T00:48:54.694Z,40.24
2022-08-05T00:59:00.235Z,40.40
2022-08-05T01:09:04.166Z,41.10
2022-08-05T01:19:46.358Z,41.88
2022-08-05T01:29:50.322Z,41.83
2022-08-05T01:39:55.102Z,41.89
2022-08-05T01:50:03.416Z,42.47
2022-08-05T02:00:12.594Z,42.47
2022-08-05T02:10:17.493Z,43.28
2022-08-05T02:20:23.270Z,43.12
2022-08-05T02:30:38.919Z,43.36
2022-08-05T02:40:57.991Z,44.68
2022-08-05T02:51:00.639Z,44.36
2022-08-05T03:01:03.757Z,44.74
2022-08-05T03:11:55.744Z,44.95
2022-08-05T03:21:41.436Z,45.27
2022-08-05T03:31:56.745Z,45.78
2022-08-05T03:41:59.258Z,45.54
2022-08-05T03:52:38.610Z,46.10
2022-08-05T04:02:38.764Z,48.17
2022-08-05T04:22:41.569Z,47.43
2022-08-05T04:32:46.775Z,48.69
2022-08-05T04:42:51.607Z,47.12
2022-08-05T04:52:54.346Z,46.26
2022-08-05T05:03:00.211Z,43.72
2022-08-05T05:13:05.807Z,43.02
2022-08-05T05:23:08.215Z,41.95
2022-08-05T05:33:23.391Z,41.22
2022-08-05T05:43:57.084Z,38.32
2022-08-05T05:53:57.960Z,35.77
2022-08-05T06:04:03.783Z,34.28
2022-08-05T06:14:09.201Z,35.00
2022-08-05T06:24:14.662Z,36.29
2022-08-05T06:34:16.214Z,35.48
2022-08-05T06:44:22.121Z,34.23
2022-08-05T06:54:25.820Z,31.59
2022-08-05T07:04:27.567Z,31.03
2022-08-05T07:14:48.359Z,27.98
2022-08-05T07:24:52.540Z,17.61
2022-08-05T07:34:57.733Z,15.49
2022-08-05T07:44:59.586Z,11.90
2022-08-05T07:55:02.279Z,9.20
2022-08-05T08:05:17.641Z,9.13
2022-08-05T08:15:22.791Z,8.71
2022-08-05T08:26:00.560Z,11.36
2022-08-05T08:36:29.409Z,9.30
2022-08-05T08:46:27.376Z,10.60
2022-08-05T08:56:30.182Z,10.01
2022-08-05T09:06:31.809Z,12.04
2022-08-05T09:16:33.654Z,11.76
2022-08-05T09:26:36.772Z,8.80
2022-08-05T09:36:55.697Z,8.85
2022-08-05T09:47:15.444Z,8.75
2022-08-05T09:57:39.438Z,8.02
2022-08-05T10:08:35.379Z,8.75
2022-08-05T10:18:17.462Z,8.66
2022-08-05T10:28:29.608Z,8.60
2022-08-05T10:38:35.292Z,8.17
2022-08-05T10:48:52.612Z,7.88
2022-08-05T10:59:11.381Z,7.93
2022-08-05T11:09:32.310Z,11.86
2022-08-05T11:20:17.072Z,15.51
2022-08-05T11:30:10.509Z,16.86
2022-08-05T11:40:12.163Z,17.42
2022-08-05T11:50:21.039Z,18.94
2022-08-05T12:00:27.607Z,18.60
2022-08-05T12:10:43.374Z,18.38
2022-08-05T12:20:47.898Z,17.23
2022-08-05T12:30:50.934Z,16.79
2022-08-05T12:40:53.762Z,16.90
2022-08-05T12:52:10.526Z,16.40
2022-08-05T13:02:02.674Z,16.62
2022-08-05T13:12:19.769Z,16.30
2022-08-05T13:22:29.138Z,16.38
2022-08-05T13:32:34.081Z,16.20
2022-08-05T13:42:39.429Z,15.92
2022-08-05T13:52:42.834Z,15.67
2022-08-05T14:02:45.612Z,15.81
2022-08-05T14:12:49.123Z,16.23
2022-08-05T14:22:57.578Z,15.42
2022-08-05T14:32:59.430Z,15.43
2022-08-05T14:43:00.896Z,14.89
2022-08-05T14:53:02.658Z,14.92
2022-08-05T15:03:07.422Z,15.27
2022-08-05T15:13:11.350Z,15.24
2022-08-05T15:23:13.421Z,15.61
2022-08-05T15:34:04.175Z,16.33
2022-08-05T15:43:45.713Z,18.26
2022-08-05T15:53:51.793Z,17.42
2022-08-05T16:03:53.394Z,17.33
2022-08-05T16:13:54.980Z,17.41
2022-08-05T16:24:01.644Z,18.45
2022-08-05T16:34:04.897Z,19.13
2022-08-05T16:44:13.501Z,19.22
2022-08-05T16:54:17.492Z,19.22
2022-08-05T17:04:22.137Z,19.48
2022-08-05T17:14:36.785Z,19.94
2022-08-05T17:24:46.292Z,21.09
2022-08-05T17:34:58.807Z,20.76
2022-08-05T17:45:17.884Z,21.66
2022-08-05T17:55:27.340Z,22.31
2022-08-05T18:05:36.375Z,22.46
2022-08-05T18:15:38.696Z,23.39
2022-08-05T18:25:41.475Z,24.19
2022-08-05T18:36:01.422Z,24.80
2022-08-05T18:46:07.069Z,25.44
2022-08-05T18:56:12.554Z,25.96
2022-08-05T19:06:21.695Z,26.68
2022-08-05T19:16:28.552Z,27.33
2022-08-05T19:26:31.768Z,28.90
2022-08-05T19:36:33.239Z,29.25
2022-08-05T19:46:37.747Z,29.90
2022-08-05T19:56:41.038Z,30.72
2022-08-05T20:06:46.424Z,31.25
2022-08-05T20:16:48.307Z,31.69
2022-08-05T20:26:49.951Z,32.61
2022-08-05T20:36:51.502Z,32.54
2022-08-05T20:46:53.013Z,32.98
2022-08-05T20:56:54.535Z,32.65
2022-08-05T21:06:56.091Z,32.86
2022-08-05T21:16:57.588Z,33.47
2022-08-05T21:26:59.158Z,33.72
2022-08-05T21:37:00.851Z,34.48
2022-08-05T21:47:04.037Z,35.36
2022-08-05T21:57:34.034Z,38.21
2022-08-05T22:07:40.362Z,40.52
2022-08-05T22:17:59.802Z,42.02
2022-08-05T22:28:09.415Z,44.18
2022-08-05T22:38:13.548Z,48.24
2022-08-05T22:48:16.846Z,50.13
2022-08-05T22:58:28.233Z,51.81
2022-08-05T23:08:30.373Z,54.23
2022-08-05T23:18:32.350Z,55.01
2022-08-05T23:28:33.932Z,55.16
2022-08-05T23:38:35.426Z,56.46
2022-08-05T23:48:36.965Z,55.92
2022-08-05T23:58:38.880Z,57.17
